createdAt,value
2019-04-11T00:02:25.458Z,0.16
2019-04-11T00:04:52.699Z,0.10
2019-04-11T00:07:19.003Z,0.07
2019-04-11T00:09:47.795Z,0.03
2019-04-11T00:12:19.318Z,-0.02
2019-04-11T00:14:48.354Z,-0.05
2019-04-11T00:17:17.430Z,-0.08
2019-04-11T00:19:53.742Z,-0.13
2019-04-11T00:22:19.467Z,-0.14
2019-04-11T00:24:53.207Z,-0.14
2019-04-11T00:27:25.290Z,-0.19
2019-04-11T00:29:57.868Z,-0.22
2019-04-11T00:32:25.332Z,-0.24
2019-04-11T00:34:51.587Z,-0.26
2019-04-11T00:37:19.010Z,-0.28
2019-04-11T00:39:47.843Z,-0.30
2019-04-11T00:42:14.593Z,-0.30
2019-04-11T00:44:47.996Z,-0.34
2019-04-11T00:47:13.050Z,-0.35
2019-04-11T00:49:44.103Z,-0.38
2019-04-11T00:52:16.255Z,-0.39
2019-04-11T00:54:44.330Z,-0.43
2019-04-11T00:57:10.698Z,-0.47
2019-04-11T00:59:44.675Z,-0.52
2019-04-11T01:02:09.391Z,-0.55
2019-04-11T01:04:45.348Z,-0.56
2019-04-11T01:07:11.314Z,-0.56
2019-04-11T01:09:37.484Z,-0.57
2019-04-11T01:12:04.633Z,-0.58
2019-04-11T01:15:17.875Z,-0.60
2019-04-11T01:16:59.182Z,-0.64
2019-04-11T01:19:27.536Z,-0.67
2019-04-11T01:21:53.667Z,-0.68
2019-04-11T01:24:22.408Z,-0.67
2019-04-11T01:26:51.777Z,-0.69
2019-04-11T01:29:19.561Z,-0.69
2019-04-11T01:31:47.826Z,-0.71
2019-04-11T01:34:20.240Z,-0.73
2019-04-11T01:36:49.436Z,-0.75
2019-04-11T01:39:21.842Z,-0.75
2019-04-11T01:41:48.866Z,-0.80
2019-04-11T01:44:22.743Z,-0.83
2019-04-11T01:46:46.491Z,-0.88
2019-04-11T01:49:18.480Z,-0.91
2019-04-11T01:51:45.550Z,-0.94
2019-04-11T01:54:13.572Z,-0.99
2019-04-11T01:56:41.093Z,-1.03
2019-04-11T01:59:07.995Z,-1.05
2019-04-11T02:01:54.885Z,-1.08
2019-04-11T02:04:26.131Z,-1.11
2019-04-11T02:06:54.485Z,-1.14
2019-04-11T02:09:22.023Z,-1.16
2019-04-11T02:11:50.187Z,-1.18
2019-04-11T02:14:21.468Z,-1.20
2019-04-11T02:16:55.685Z,-1.22
2019-04-11T02:19:28.609Z,-1.23
2019-04-11T02:21:58.556Z,-1.24
2019-04-11T02:24:37.672Z,-1.25
2019-04-11T02:27:21.170Z,-1.26
2019-04-11T02:29:48.881Z,-1.28
2019-04-11T02:32:15.764Z,-1.30
2019-04-11T02:34:43.909Z,-1.33
2019-04-11T02:37:10.336Z,-1.36
2019-04-11T02:39:38.494Z,-1.41
2019-04-11T02:42:06.348Z,-1.43
2019-04-11T02:44:50.930Z,-1.46
2019-04-11T02:47:09.848Z,-1.48
2019-04-11T02:49:39.349Z,-1.48
2019-04-11T02:52:02.961Z,-1.51
2019-04-11T02:54:33.863Z,-1.53
2019-04-11T02:57:03.606Z,-1.53
2019-04-11T02:59:30.516Z,-1.53
2019-04-11T03:02:00.463Z,-1.54
2019-04-11T03:04:31.142Z,-1.57
2019-04-11T03:06:59.854Z,-1.57
2019-04-11T03:09:51.049Z,-1.59
2019-04-11T03:11:58.936Z,-1.59
2019-04-11T03:14:27.734Z,-1.61
2019-04-11T03:17:03.649Z,-1.64
2019-04-11T03:19:37.562Z,-1.68
2019-04-11T03:21:54.303Z,-1.68
2019-04-11T03:24:24.452Z,-1.68
2019-04-11T03:26:56.552Z,-1.73
2019-04-11T03:29:30.903Z,-1.76
2019-04-11T03:39:48.760Z,-1.79
2019-04-11T03:42:10.953Z,-1.77
2019-04-11T03:44:28.612Z,-1.79
2019-04-11T03:47:08.415Z,-1.82
2019-04-11T03:49:31.735Z,-1.83
2019-04-11T03:51:50.735Z,-1.86
2019-04-11T03:54:17.999Z,-1.87
2019-04-11T04:00:21.607Z,-1.92
2019-04-11T04:03:09.048Z,-1.99
2019-04-11T04:08:44.464Z,-2.08
2019-04-11T04:11:22.168Z,-2.11
2019-04-11T04:14:24.978Z,-2.16
2019-04-11T04:17:32.981Z,-2.19
2019-04-11T04:20:08.759Z,-2.24
2019-04-11T04:23:03.177Z,-2.29
2019-04-11T04:29:02.145Z,-2.36
2019-04-11T04:31:30.633Z,-2.44
2019-04-11T04:33:57.737Z,-2.48
2019-04-11T04:36:26.744Z,-2.48
2019-04-11T04:38:54.560Z,-2.47
2019-04-11T04:41:35.127Z,-2.49
2019-04-11T04:43:54.695Z,-2.52
2019-04-11T04:46:34.853Z,-2.50
2019-04-11T04:48:51.294Z,-2.49
2019-04-11T04:51:18.339Z,-2.48
2019-04-11T04:53:57.728Z,-2.47
2019-04-11T04:56:20.244Z,-2.49
2019-04-11T04:58:44.369Z,-2.48
2019-04-11T05:01:12.515Z,-2.47
2019-04-11T05:03:40.436Z,-2.46
2019-04-11T05:06:07.709Z,-2.44
2019-04-11T05:08:34.761Z,-2.45
2019-04-11T05:11:02.181Z,-2.44
2019-04-11T05:13:30.019Z,-2.43
2019-04-11T05:16:06.865Z,-2.40
2019-04-11T05:18:25.657Z,-2.39
2019-04-11T05:20:52.734Z,-2.38
2019-04-11T05:23:18.927Z,-2.37
2019-04-11T05:25:45.204Z,-2.31
2019-04-11T05:28:12.041Z,-2.29
2019-04-11T05:30:39.835Z,-2.27
2019-04-11T05:33:06.104Z,-2.21
2019-04-11T05:35:33.006Z,-2.18
2019-04-11T05:38:00.394Z,-2.12
2019-04-11T05:40:26.481Z,-2.10
2019-04-11T05:42:54.134Z,-2.07
2019-04-11T05:45:22.572Z,-2.03
2019-04-11T05:47:50.917Z,-2.00
2019-04-11T05:50:22.164Z,-1.97
2019-04-11T05:52:48.399Z,-1.91
2019-04-11T05:55:15.519Z,-1.86
2019-04-11T05:57:44.769Z,-1.82
2019-04-11T06:00:30.951Z,-1.78
2019-04-11T06:02:59.669Z,-1.72
2019-04-11T06:05:35.481Z,-1.69
2019-04-11T06:08:05.445Z,-1.66
2019-04-11T06:10:33.871Z,-1.61
2019-04-11T06:13:12.066Z,-1.57
2019-04-11T06:15:45.813Z,-1.51
2019-04-11T06:18:26.224Z,-1.46
2019-04-11T06:20:45.002Z,-1.41
2019-04-11T06:23:31.827Z,-1.35
2019-04-11T06:26:10.458Z,-1.29
2019-04-11T06:28:39.135Z,-1.22
2019-04-11T06:31:13.775Z,-1.17
2019-04-11T06:33:42.858Z,-1.11
2019-04-11T06:36:21.005Z,-1.07
2019-04-11T06:38:51.998Z,-1.00
2019-04-11T06:41:26.328Z,-0.93
2019-04-11T06:44:04.703Z,-0.86
2019-04-11T06:46:55.788Z,-0.81
2019-04-11T06:49:27.060Z,-0.72
2019-04-11T06:51:55.164Z,-0.65
2019-04-11T06:54:23.376Z,-0.59
2019-04-11T06:56:52.099Z,-0.51
2019-04-11T06:59:20.640Z,-0.46
2019-04-11T07:01:47.576Z,-0.40
2019-04-11T07:04:15.668Z,-0.33
2019-04-11T07:06:43.930Z,-0.23
2019-04-11T07:09:17.632Z,-0.15
2019-04-11T07:11:48.573Z,-0.07
2019-04-11T07:14:16.654Z,0.02
2019-04-11T07:17:06.900Z,0.09
2019-04-11T07:19:33.800Z,0.17
2019-04-11T07:22:00.298Z,0.24
2019-04-11T07:24:28.337Z,0.32
2019-04-11T07:26:56.466Z,0.40
2019-04-11T07:29:27.286Z,0.48
2019-04-11T07:32:09.385Z,0.56
2019-04-11T07:34:39.669Z,0.64
2019-04-11T07:37:25.994Z,0.74
2019-04-11T07:39:58.473Z,0.80
2019-04-11T07:42:26.667Z,0.92
2019-04-11T07:44:57.689Z,1.02
2019-04-11T07:47:29.468Z,1.11
2019-04-11T07:49:58.209Z,1.22
2019-04-11T07:52:25.226Z,1.29
2019-04-11T07:54:51.490Z,1.36
2019-04-11T07:57:31.834Z,1.47
2019-04-11T08:00:03.765Z,1.56
2019-04-11T08:02:38.154Z,1.69
2019-04-11T08:05:11.080Z,1.81
2019-04-11T08:07:51.866Z,1.93
2019-04-11T08:10:25.901Z,2.05
2019-04-11T08:12:54.110Z,2.17
2019-04-11T08:15:29.337Z,2.33
2019-04-11T08:17:57.541Z,2.41
2019-04-11T08:20:42.288Z,2.47
2019-04-11T08:23:09.720Z,2.55
2019-04-11T08:25:47.386Z,2.77
2019-04-11T08:28:14.628Z,3.00
2019-04-11T08:30:55.190Z,3.31
2019-04-11T08:33:24.549Z,3.50
2019-04-11T08:35:57.165Z,3.62
2019-04-11T08:38:26.597Z,3.76
2019-04-11T08:40:55.487Z,3.92
2019-04-11T08:43:29.578Z,4.06
2019-04-11T08:46:06.881Z,4.23
2019-04-11T08:48:35.208Z,4.37
2019-04-11T08:51:12.525Z,4.38
2019-04-11T08:53:44.713Z,4.40
2019-04-11T08:56:12.880Z,4.42
2019-04-11T08:58:53.140Z,4.51
2019-04-11T09:01:20.735Z,4.60
2019-04-11T09:04:09.218Z,4.70
2019-04-11T09:06:34.847Z,4.76
2019-04-11T09:09:18.807Z,4.83
2019-04-11T09:11:48.829Z,4.89
2019-04-11T09:14:20.029Z,4.87
2019-04-11T09:16:58.234Z,4.94
2019-04-11T09:19:27.254Z,5.07
2019-04-11T09:22:11.000Z,5.16
2019-04-11T09:24:43.134Z,5.25
2019-04-11T09:27:24.792Z,5.36
2019-04-11T09:30:02.555Z,5.39
2019-04-11T09:32:33.765Z,5.50
2019-04-11T09:35:02.066Z,5.62
2019-04-11T09:37:29.547Z,5.87
2019-04-11T09:39:58.049Z,6.05
2019-04-11T09:42:43.120Z,6.20
2019-04-11T09:45:29.816Z,6.30
2019-04-11T09:48:08.367Z,6.44
2019-04-11T09:50:36.645Z,6.55
2019-04-11T09:53:03.628Z,6.57
2019-04-11T09:55:37.770Z,6.65
2019-04-11T09:58:03.939Z,6.71
2019-04-11T10:00:34.958Z,6.75
2019-04-11T10:03:03.005Z,6.61
2019-04-11T10:05:32.024Z,6.61
2019-04-11T10:08:00.135Z,6.74
2019-04-11T10:10:28.912Z,6.82
2019-04-11T10:13:13.952Z,6.87
2019-04-11T10:15:43.180Z,6.91
2019-04-11T10:18:26.046Z,6.95
2019-04-11T10:20:50.856Z,7.02
2019-04-11T10:23:36.721Z,7.08
2019-04-11T10:26:03.597Z,7.12
2019-04-11T10:28:40.334Z,7.19
2019-04-11T10:31:08.575Z,7.20
2019-04-11T10:33:42.827Z,7.28
2019-04-11T10:36:10.922Z,7.35
2019-04-11T10:38:38.970Z,7.42
2019-04-11T10:41:25.228Z,7.34
2019-04-11T10:44:05.565Z,7.37
2019-04-11T10:50:25.730Z,7.30
2019-04-11T10:52:55.071Z,7.41
2019-04-11T10:55:39.877Z,7.42
2019-04-11T10:58:20.629Z,7.26
2019-04-11T11:00:48.849Z,7.15
2019-04-11T11:03:27.358Z,7.21
2019-04-11T11:06:01.466Z,7.29
2019-04-11T11:08:45.976Z,7.47
2019-04-11T11:11:20.549Z,7.66
2019-04-11T11:13:54.513Z,8.69
2019-04-11T11:16:30.570Z,8.80
2019-04-11T11:19:34.623Z,9.29
2019-04-11T11:21:47.322Z,9.74
2019-04-11T11:24:33.860Z,9.75
2019-04-11T11:27:02.953Z,10.22
2019-04-11T11:29:30.077Z,10.22
2019-04-11T11:31:58.143Z,9.89
2019-04-11T11:34:30.437Z,9.69
2019-04-11T11:37:15.837Z,9.61
2019-04-11T11:40:02.722Z,9.45
2019-04-11T11:42:42.789Z,9.78
2019-04-11T11:45:23.617Z,13.10
2019-04-11T11:48:13.652Z,12.64
2019-04-11T11:50:36.545Z,12.08
2019-04-11T11:53:19.125Z,11.46
2019-04-11T11:55:46.225Z,12.92
2019-04-11T11:58:31.118Z,15.70
2019-04-11T12:01:03.666Z,17.14
2019-04-11T12:03:40.506Z,16.24
2019-04-11T12:06:09.767Z,14.74
2019-04-11T12:08:46.659Z,13.83
2019-04-11T12:11:13.720Z,13.59
2019-04-11T12:13:41.795Z,13.02
2019-04-11T12:16:19.063Z,12.72
2019-04-11T12:19:00.943Z,13.59
2019-04-11T12:21:32.112Z,15.28
2019-04-11T12:24:04.298Z,17.78
2019-04-11T12:26:33.317Z,20.02
2019-04-11T12:29:14.298Z,21.42
2019-04-11T12:31:44.014Z,20.83
2019-04-11T12:34:27.656Z,21.55
2019-04-11T12:36:54.694Z,20.63
2019-04-11T12:39:35.864Z,19.59
2019-04-11T12:42:06.824Z,18.24
2019-04-11T12:44:45.838Z,18.40
2019-04-11T12:47:30.798Z,20.53
2019-04-11T12:50:07.903Z,20.22
2019-04-11T12:52:36.062Z,20.45
2019-04-11T12:55:25.380Z,22.45
2019-04-11T12:58:10.314Z,22.83
2019-04-11T13:00:38.679Z,19.78
2019-04-11T13:03:09.988Z,20.05
2019-04-11T13:08:09.338Z,22.70
2019-04-11T13:10:36.557Z,23.09
2019-04-11T13:13:24.860Z,21.35
2019-04-11T13:15:54.629Z,20.92
2019-04-11T13:18:25.617Z,21.16
2019-04-11T13:20:56.310Z,21.17
2019-04-11T13:23:27.461Z,22.13
2019-04-11T13:26:12.219Z,20.59
2019-04-11T13:28:40.181Z,18.67
2019-04-11T13:31:24.832Z,17.04
2019-04-11T13:33:52.970Z,16.27
2019-04-11T13:36:33.003Z,18.57
2019-04-11T13:39:02.470Z,20.53
2019-04-11T13:41:32.161Z,22.21
2019-04-11T13:43:58.951Z,23.01
2019-04-11T13:46:36.148Z,21.63
2019-04-11T13:49:19.702Z,19.86
2019-04-11T13:52:04.542Z,18.41
2019-04-11T13:54:41.334Z,17.89
2019-04-11T13:57:24.522Z,17.48
2019-04-11T14:00:09.544Z,19.25
2019-04-11T14:02:54.704Z,20.23
2019-04-11T14:05:22.026Z,21.17
2019-04-11T14:07:49.301Z,20.83
2019-04-11T14:10:18.882Z,20.68
2019-04-11T14:12:45.759Z,20.52
2019-04-11T14:15:26.429Z,19.02
2019-04-11T14:17:54.615Z,18.21
2019-04-11T14:20:29.712Z,18.68
2019-04-11T14:23:04.436Z,18.67
2019-04-11T14:25:42.225Z,18.00
2019-04-11T14:28:10.257Z,17.23
2019-04-11T14:30:53.488Z,16.62
2019-04-11T14:33:23.588Z,16.32
2019-04-11T14:35:53.010Z,16.39
2019-04-11T14:38:21.167Z,16.14
2019-04-11T14:41:04.898Z,15.61
2019-04-11T14:43:43.749Z,15.07
2019-04-11T14:46:28.915Z,14.53
2019-04-11T14:48:56.382Z,13.81
2019-04-11T14:51:27.488Z,13.33
2019-04-11T14:54:17.080Z,13.02
2019-04-11T14:56:55.897Z,12.67
2019-04-11T14:59:24.955Z,12.45
2019-04-11T15:01:53.558Z,12.05
2019-04-11T15:04:38.287Z,11.91
2019-04-11T15:07:05.374Z,11.78
2019-04-11T15:09:50.279Z,11.53
2019-04-11T15:12:18.448Z,11.62
2019-04-11T15:14:48.537Z,11.45
2019-04-11T15:17:16.473Z,11.30
2019-04-11T15:19:44.537Z,11.83
2019-04-11T15:22:21.824Z,12.00
2019-04-11T15:24:49.896Z,11.87
2019-04-11T15:27:23.660Z,11.88
2019-04-11T15:29:49.840Z,11.63
2019-04-11T15:32:27.274Z,11.47
2019-04-11T15:34:53.997Z,11.27
2019-04-11T15:37:22.561Z,10.82
2019-04-11T15:39:53.483Z,10.49
2019-04-11T15:42:27.671Z,10.20
2019-04-11T15:45:14.062Z,9.88
2019-04-11T15:47:59.017Z,9.62
2019-04-11T15:50:43.653Z,9.44
2019-04-11T15:53:11.639Z,9.22
2019-04-11T15:55:42.855Z,8.87
2019-04-11T15:58:12.663Z,8.54
2019-04-11T16:00:48.709Z,8.20
2019-04-11T16:03:15.041Z,7.96
2019-04-11T16:05:49.259Z,7.76
2019-04-11T16:08:19.117Z,7.66
2019-04-11T16:10:47.258Z,7.50
2019-04-11T16:13:15.289Z,7.21
2019-04-11T16:15:43.435Z,7.10
2019-04-11T16:18:28.290Z,7.03
2019-04-11T16:21:18.346Z,6.96
2019-04-11T16:23:45.981Z,6.88
2019-04-11T16:26:14.173Z,6.82
2019-04-11T16:28:45.264Z,6.75
2019-04-11T16:31:11.530Z,6.62
2019-04-11T16:33:46.892Z,6.33
2019-04-11T16:36:18.054Z,6.25
2019-04-11T16:38:49.684Z,6.18
2019-04-11T16:41:25.038Z,6.10
2019-04-11T16:44:10.040Z,6.10
2019-04-11T16:46:38.116Z,6.03
2019-04-11T16:49:04.526Z,5.87
2019-04-11T16:51:31.428Z,5.73
2019-04-11T16:53:58.067Z,5.58
2019-04-11T16:56:24.316Z,5.46
2019-04-11T16:58:50.530Z,5.37
2019-04-11T17:01:16.927Z,5.31
2019-04-11T17:03:44.089Z,5.17
2019-04-11T17:06:12.494Z,5.06
2019-04-11T17:08:46.574Z,5.05
2019-04-11T17:11:14.715Z,5.01
2019-04-11T17:13:41.223Z,4.97
2019-04-11T17:16:09.542Z,4.88
2019-04-11T17:18:35.896Z,4.82
2019-04-11T17:21:02.294Z,4.78
2019-04-11T17:23:28.915Z,4.74
2019-04-11T17:25:55.239Z,4.67
2019-04-11T17:28:23.052Z,4.60
2019-04-11T17:30:49.738Z,4.51
2019-04-11T17:33:17.159Z,4.42
2019-04-11T17:35:43.659Z,4.34
2019-04-11T17:38:10.066Z,4.27
2019-04-11T17:40:39.426Z,4.20
2019-04-11T17:43:04.628Z,4.12
2019-04-11T17:45:31.454Z,4.05
2019-04-11T17:47:59.275Z,3.99
2019-04-11T17:50:25.662Z,3.93
2019-04-11T17:52:54.404Z,3.86
2019-04-11T17:55:23.612Z,3.82
2019-04-11T17:57:48.426Z,3.78
2019-04-11T18:00:17.275Z,3.72
2019-04-11T18:02:46.278Z,3.68
2019-04-11T18:05:16.697Z,3.66
2019-04-11T18:07:41.541Z,3.65
2019-04-11T18:10:08.329Z,3.62
2019-04-11T18:12:34.625Z,3.57
2019-04-11T18:15:02.327Z,3.54
2019-04-11T18:17:29.593Z,3.48
2019-04-11T18:19:55.885Z,3.41
2019-04-11T18:22:22.166Z,3.34
2019-04-11T18:24:50.207Z,3.25
2019-04-11T18:27:17.096Z,3.11
2019-04-11T18:29:43.353Z,2.98
2019-04-11T18:32:09.721Z,2.87
2019-04-11T18:34:36.113Z,2.81
2019-04-11T18:37:02.738Z,2.75
2019-04-11T18:39:28.859Z,2.65
2019-04-11T18:41:57.555Z,2.54
2019-04-11T18:44:23.115Z,2.40
2019-04-11T18:46:49.370Z,2.30
2019-04-11T18:49:15.572Z,2.25
2019-04-11T18:51:41.889Z,2.22
2019-04-11T18:54:08.104Z,2.16
2019-04-11T18:56:34.399Z,2.10
2019-04-11T18:59:03.449Z,2.05
2019-04-11T19:01:29.021Z,2.03
2019-04-11T19:03:55.216Z,2.03
2019-04-11T19:06:27.749Z,2.04
2019-04-11T19:08:49.691Z,2.02
2019-04-11T19:11:16.363Z,2.00
2019-04-11T19:13:46.737Z,1.99
2019-04-11T19:16:10.973Z,1.95
2019-04-11T19:18:39.409Z,1.94
2019-04-11T19:21:05.763Z,1.93
2019-04-11T19:23:32.009Z,1.89
2019-04-11T19:25:58.234Z,1.85
2019-04-11T19:28:25.214Z,1.81
2019-04-11T19:30:54.024Z,1.77
2019-04-11T19:33:20.224Z,1.71
2019-04-11T19:35:46.560Z,1.71
2019-04-11T19:38:26.195Z,1.71
2019-04-11T19:40:52.620Z,1.70
2019-04-11T19:43:19.641Z,1.69
2019-04-11T19:45:49.837Z,1.71
2019-04-11T19:48:14.102Z,1.70
2019-04-11T19:50:40.368Z,1.69
2019-04-11T19:53:07.545Z,1.68
2019-04-11T19:55:47.690Z,1.67
2019-04-11T19:58:15.625Z,1.64
2019-04-11T20:00:42.000Z,1.55
2019-04-11T20:03:08.959Z,1.48
2019-04-11T20:05:35.678Z,1.42
2019-04-11T20:08:01.958Z,1.36
2019-04-11T20:10:30.611Z,1.33
2019-04-11T20:12:56.343Z,1.26
2019-04-11T20:15:22.610Z,1.22
2019-04-11T20:17:52.029Z,1.19
2019-04-11T20:20:17.024Z,1.15
2019-04-11T20:22:43.238Z,1.09
2019-04-11T20:25:09.622Z,1.05
2019-04-11T20:27:36.076Z,1.01
2019-04-11T20:30:04.818Z,0.98
2019-04-11T20:32:33.160Z,0.96
2019-04-11T20:34:59.653Z,0.98
2019-04-11T20:37:26.070Z,0.95
2019-04-11T20:39:52.375Z,0.91
2019-04-11T20:42:23.793Z,0.86
2019-04-11T20:44:49.487Z,0.80
2019-04-11T20:47:16.891Z,0.71
2019-04-11T20:49:47.852Z,0.66
2019-04-11T20:52:14.358Z,0.60
2019-04-11T20:54:40.633Z,0.56
2019-04-11T20:57:06.944Z,0.54
2019-04-11T20:59:34.877Z,0.49
2019-04-11T21:02:01.430Z,0.45
2019-04-11T21:04:27.762Z,0.39
2019-04-11T21:06:54.035Z,0.34
2019-04-11T21:09:20.249Z,0.30
2019-04-11T21:11:46.421Z,0.26
2019-04-11T21:14:12.633Z,0.21
2019-04-11T21:16:38.810Z,0.20
2019-04-11T21:19:05.066Z,0.19
2019-04-11T21:21:31.284Z,0.18
2019-04-11T21:23:57.941Z,0.18
2019-04-11T21:26:28.745Z,0.15
2019-04-11T21:28:53.836Z,0.10
2019-04-11T21:31:20.111Z,0.09
2019-04-11T21:33:47.285Z,0.09
2019-04-11T21:36:13.494Z,0.05
2019-04-11T21:38:39.658Z,0.05
2019-04-11T21:41:06.670Z,0.03
2019-04-11T21:43:35.936Z,0.02
2019-04-11T21:46:01.235Z,0.03
2019-04-11T21:48:27.352Z,0.01
2019-04-11T21:50:53.706Z,-0.02
2019-04-11T21:53:19.809Z,-0.05
2019-04-11T21:55:47.695Z,-0.07
2019-04-11T21:58:14.195Z,-0.09
2019-04-11T22:00:44.823Z,-0.13
2019-04-11T22:03:12.950Z,-0.18
2019-04-11T22:05:39.353Z,-0.19
2019-04-11T22:08:05.550Z,-0.21
2019-04-11T22:10:31.964Z,-0.24
2019-04-11T22:12:58.343Z,-0.27
2019-04-11T22:15:24.547Z,-0.28
2019-04-11T22:17:50.660Z,-0.29
2019-04-11T22:20:17.418Z,-0.32
2019-04-11T22:22:43.731Z,-0.32
2019-04-11T22:25:10.068Z,-0.30
2019-04-11T22:27:36.164Z,-0.30
2019-04-11T22:30:05.948Z,-0.33
2019-04-11T22:32:32.142Z,-0.35
2019-04-11T22:34:59.208Z,-0.38
2019-04-11T22:37:27.735Z,-0.41
2019-04-11T22:39:54.270Z,-0.45
2019-04-11T22:42:20.482Z,-0.45
2019-04-11T22:44:46.665Z,-0.47
2019-04-11T22:47:12.944Z,-0.50
2019-04-11T22:49:39.954Z,-0.53
2019-04-11T22:52:06.518Z,-0.51
2019-04-11T22:54:32.677Z,-0.52
2019-04-11T22:56:59.025Z,-0.51
2019-04-11T22:59:25.232Z,-0.51
2019-04-11T23:01:53.166Z,-0.51
2019-04-11T23:04:19.310Z,-0.51
2019-04-11T23:06:47.118Z,-0.50
2019-04-11T23:09:13.757Z,-0.51
2019-04-11T23:11:39.979Z,-0.53
2019-04-11T23:14:06.061Z,-0.55
2019-04-11T23:16:32.280Z,-0.55
2019-04-11T23:18:59.425Z,-0.61
2019-04-11T23:21:25.635Z,-0.65
2019-04-11T23:23:51.785Z,-0.68
2019-04-11T23:26:18.009Z,-0.71
2019-04-11T23:28:46.906Z,-0.76
2019-04-11T23:31:13.592Z,-0.82
2019-04-11T23:33:39.735Z,-0.85
2019-04-11T23:36:05.999Z,-0.89
2019-04-11T23:38:32.357Z,-0.92
2019-04-11T23:40:58.534Z,-0.96
2019-04-11T23:43:24.804Z,-1.01
2019-04-11T23:45:51.736Z,-1.04
2019-04-11T23:48:18.037Z,-1.08
2019-04-11T23:50:44.314Z,-1.10
2019-04-11T23:53:10.425Z,-1.12
2019-04-11T23:55:36.641Z,-1.12
2019-04-11T23:58:02.896Z,-1.14
